createdAt,value
2022-12-25T00:00:25.564Z,95287.22
2022-12-25T00:02:52.171Z,95301.16
2022-12-25T00:05:18.779Z,95285.38
2022-12-25T00:14:51.224Z,95280.63
2022-12-25T00:20:59.289Z,95256.25
2022-12-25T00:23:34.158Z,95256.72
2022-12-25T00:26:06.629Z,95259.59
2022-12-25T00:28:33.840Z,95266.03
2022-12-25T00:37:53.689Z,95251.31
2022-12-25T00:44:29.104Z,95256.09
2022-12-25T00:50:56.819Z,95241.28
2022-12-25T00:57:24.931Z,95253.03
2022-12-25T00:59:51.455Z,95247.41
2022-12-25T01:02:18.149Z,95247.09
2022-12-25T01:04:44.983Z,95248.41
2022-12-25T01:07:11.541Z,95241.34
2022-12-25T01:09:38.664Z,95256.63
2022-12-25T01:12:05.229Z,95252.66
2022-12-25T01:14:31.740Z,95243.66
2022-12-25T01:17:18.577Z,95251.34
2022-12-25T01:19:45.092Z,95237.28
2022-12-25T01:22:18.637Z,95235.16
2022-12-25T01:24:53.284Z,95246.91
2022-12-25T01:30:29.624Z,95260.28
2022-12-25T01:33:09.200Z,95257.69
2022-12-25T01:39:27.717Z,95259.34
2022-12-25T01:45:18.533Z,95251.56
2022-12-25T01:47:56.635Z,95248.94
2022-12-25T01:50:28.189Z,95249.19
2022-12-25T01:52:55.334Z,95240.69
2022-12-25T01:55:22.042Z,95247.63
2022-12-25T01:57:48.499Z,95243.47
2022-12-25T02:03:09.036Z,95232.28
2022-12-25T02:05:48.106Z,95239.31
2022-12-25T02:08:18.973Z,95246.78
2022-12-25T02:10:58.846Z,95237.53
2022-12-25T02:13:30.469Z,95237.97
2022-12-25T02:16:12.748Z,95241.91
2022-12-25T02:30:08.357Z,95236.19
2022-12-25T02:32:46.743Z,95235.47
2022-12-25T02:35:41.546Z,95227.69
2022-12-25T02:52:22.593Z,95212.66
2022-12-25T02:58:32.284Z,95213.69
2022-12-25T03:01:30.137Z,95212.00
2022-12-25T03:03:59.124Z,95204.13
2022-12-25T03:17:47.532Z,95200.06
2022-12-25T03:28:23.264Z,95198.56
2022-12-25T03:34:34.429Z,95186.13
2022-12-25T03:37:21.858Z,95177.78
2022-12-25T03:39:58.312Z,95175.84
2022-12-25T03:42:33.698Z,95173.88
2022-12-25T03:45:11.554Z,95160.66
2022-12-25T03:47:46.477Z,95159.53
2022-12-25T03:50:23.214Z,95163.56
2022-12-25T03:55:58.173Z,95150.56
2022-12-25T03:58:26.424Z,95158.06
2022-12-25T04:00:53.124Z,95157.69
2022-12-25T04:03:19.696Z,95147.69
2022-12-25T04:05:46.186Z,95154.53
2022-12-25T04:08:12.703Z,95156.09
2022-12-25T04:10:39.222Z,95149.88
2022-12-25T04:13:25.763Z,95149.22
2022-12-25T04:23:53.470Z,95147.88
2022-12-25T04:30:38.459Z,95159.09
2022-12-25T04:33:04.943Z,95156.81
2022-12-25T04:35:34.190Z,95162.91
2022-12-25T04:38:00.821Z,95161.63
2022-12-25T04:40:27.492Z,95153.28
2022-12-25T04:42:53.979Z,95166.31
2022-12-25T04:45:20.525Z,95153.50
2022-12-25T04:47:46.999Z,95154.97
2022-12-25T04:50:13.687Z,95156.88
2022-12-25T04:52:41.530Z,95149.22
2022-12-25T04:55:09.511Z,95147.09
2022-12-25T04:57:36.398Z,95151.13
2022-12-25T05:00:06.691Z,95142.81
2022-12-25T05:05:31.774Z,95129.56
2022-12-25T05:07:58.273Z,95128.53
2022-12-25T05:10:24.769Z,95121.28
2022-12-25T05:16:14.691Z,95138.28
2022-12-25T05:18:45.032Z,95136.88
2022-12-25T05:21:12.073Z,95126.31
2022-12-25T05:23:38.972Z,95139.53
2022-12-25T05:26:06.886Z,95133.16
2022-12-25T05:28:36.495Z,95132.75
2022-12-25T05:31:03.439Z,95130.75
2022-12-25T05:33:30.014Z,95122.50
2022-12-25T05:35:56.541Z,95137.56
2022-12-25T05:38:23.104Z,95140.00
2022-12-25T05:40:51.698Z,95143.41
2022-12-25T05:51:14.871Z,95135.81
2022-12-25T05:53:42.194Z,95132.19
2022-12-25T05:56:20.294Z,95143.94
2022-12-25T05:58:49.348Z,95150.28
2022-12-25T06:01:21.536Z,95152.56
2022-12-25T06:04:22.179Z,95158.72
2022-12-25T06:06:57.869Z,95155.25
2022-12-25T06:09:24.376Z,95160.53
2022-12-25T06:12:13.921Z,95153.66
2022-12-25T06:14:46.319Z,95148.09
2022-12-25T06:17:12.803Z,95150.72
2022-12-25T06:19:39.388Z,95140.53
2022-12-25T06:22:05.895Z,95156.25
2022-12-25T06:24:32.599Z,95156.63
2022-12-25T06:26:59.119Z,95161.34
2022-12-25T06:29:25.752Z,95156.69
2022-12-25T06:31:54.508Z,95164.44
2022-12-25T06:37:34.725Z,95162.22
2022-12-25T06:40:04.670Z,95157.31
2022-12-25T06:42:34.209Z,95169.66
2022-12-25T06:45:05.374Z,95165.88
2022-12-25T06:47:32.018Z,95169.56
2022-12-25T06:50:05.891Z,95169.13
2022-12-25T06:52:36.302Z,95174.38
2022-12-25T06:55:02.867Z,95171.47
2022-12-25T06:57:41.334Z,95167.19
2022-12-25T07:00:08.557Z,95175.56
2022-12-25T07:02:35.291Z,95167.06
2022-12-25T07:05:02.189Z,95165.16
2022-12-25T07:07:41.005Z,95162.16
2022-12-25T07:10:16.703Z,95169.38
2022-12-25T07:12:43.198Z,95167.69
2022-12-25T07:15:10.092Z,95162.09
2022-12-25T07:17:36.635Z,95167.06
2022-12-25T07:20:03.308Z,95165.63
2022-12-25T07:22:50.711Z,95169.72
2022-12-25T07:25:17.250Z,95178.34
2022-12-25T07:27:49.404Z,95176.56
2022-12-25T07:30:18.777Z,95179.84
2022-12-25T07:32:54.097Z,95186.03
2022-12-25T07:35:20.727Z,95190.44
2022-12-25T07:37:47.267Z,95197.19
2022-12-25T07:43:43.632Z,95188.19
2022-12-25T07:46:10.807Z,95190.53
2022-12-25T07:48:37.813Z,95192.94
2022-12-25T07:51:10.347Z,95197.47
2022-12-25T07:53:37.542Z,95207.53
2022-12-25T07:56:15.691Z,95205.72
2022-12-25T07:58:42.551Z,95205.63
2022-12-25T08:01:17.710Z,95214.38
2022-12-25T08:03:44.574Z,95214.38
2022-12-25T08:06:11.857Z,95211.88
2022-12-25T08:08:43.447Z,95219.03
2022-12-25T08:11:10.211Z,95211.22
2022-12-25T08:13:37.641Z,95218.47
2022-12-25T08:16:06.671Z,95225.59
2022-12-25T08:18:33.200Z,95229.84
2022-12-25T08:21:08.051Z,95224.78
2022-12-25T08:23:39.275Z,95224.97
2022-12-25T08:26:09.078Z,95214.69
2022-12-25T08:28:35.991Z,95209.28
2022-12-25T08:31:10.469Z,95218.31
2022-12-25T08:33:39.989Z,95226.84
2022-12-25T08:36:08.351Z,95229.09
2022-12-25T08:38:40.886Z,95233.66
2022-12-25T08:41:07.784Z,95239.31
2022-12-25T08:43:34.355Z,95246.69
2022-12-25T08:46:01.153Z,95243.13
2022-12-25T08:48:27.967Z,95238.63
2022-12-25T08:50:54.576Z,95231.81
2022-12-25T08:53:21.671Z,95236.81
2022-12-25T08:56:10.218Z,95241.75
2022-12-25T08:58:37.179Z,95242.78
2022-12-25T09:01:04.121Z,95249.59
2022-12-25T09:03:34.017Z,95244.28
2022-12-25T09:06:05.759Z,95240.00
2022-12-25T09:08:32.607Z,95230.88
2022-12-25T09:11:10.907Z,95223.16
2022-12-25T09:13:41.575Z,95221.91
2022-12-25T09:16:14.617Z,95230.75
2022-12-25T09:18:41.350Z,95231.66
2022-12-25T09:21:19.758Z,95234.16
2022-12-25T09:23:46.328Z,95235.44
2022-12-25T09:26:17.351Z,95239.38
2022-12-25T09:28:55.424Z,95248.84
2022-12-25T09:31:22.920Z,95252.06
2022-12-25T09:34:02.701Z,95256.91
2022-12-25T09:36:29.218Z,95249.50
2022-12-25T09:39:01.661Z,95251.53
2022-12-25T09:41:51.781Z,95248.50
2022-12-25T09:44:21.887Z,95242.88
2022-12-25T09:46:55.800Z,95241.47
2022-12-25T09:49:39.262Z,95242.50
2022-12-25T09:52:13.524Z,95216.84
2022-12-25T09:55:19.776Z,95221.56
2022-12-25T09:57:55.895Z,95226.66
2022-12-25T10:00:25.969Z,95230.22
2022-12-25T10:03:10.628Z,95235.19
2022-12-25T10:06:15.286Z,95215.22
2022-12-25T10:08:47.680Z,95223.28
2022-12-25T10:11:42.433Z,95227.06
2022-12-25T10:14:37.399Z,95232.31
2022-12-25T10:17:21.423Z,95226.75
2022-12-25T10:20:02.983Z,95228.69
2022-12-25T10:22:40.275Z,95226.13
2022-12-25T10:25:15.420Z,95222.31
2022-12-25T10:27:43.141Z,95229.81
2022-12-25T10:30:22.200Z,95216.78
2022-12-25T10:32:49.429Z,95211.88
2022-12-25T10:35:21.728Z,95210.38
2022-12-25T10:38:13.266Z,95207.44
2022-12-25T10:40:50.312Z,95210.81
2022-12-25T10:43:29.546Z,95206.81
2022-12-25T10:45:56.464Z,95201.94
2022-12-25T10:48:27.310Z,95207.25
2022-12-25T10:50:54.073Z,95209.59
2022-12-25T10:53:26.877Z,95199.19
2022-12-25T10:55:55.059Z,95185.44
2022-12-25T10:58:22.930Z,95176.94
2022-12-25T11:00:54.746Z,95177.84
2022-12-25T11:03:24.799Z,95176.19
2022-12-25T11:05:51.587Z,95180.38
2022-12-25T11:08:23.120Z,95190.63
2022-12-25T11:10:56.313Z,95201.63
2022-12-25T11:13:29.945Z,95190.72
2022-12-25T11:16:04.362Z,95154.44
2022-12-25T11:18:51.457Z,95134.03
2022-12-25T11:21:21.865Z,95144.41
2022-12-25T11:23:50.855Z,95156.88
2022-12-25T11:26:18.331Z,95184.16
2022-12-25T11:28:45.811Z,95204.31
2022-12-25T11:31:17.964Z,95201.59
2022-12-25T11:33:51.894Z,95197.47
2022-12-25T11:36:42.028Z,95191.88
2022-12-25T11:39:12.767Z,95173.59
2022-12-25T11:41:39.687Z,95148.22
2022-12-25T11:44:11.621Z,95154.44
2022-12-25T11:46:42.257Z,95169.75
2022-12-25T11:49:14.796Z,95179.41
2022-12-25T11:51:44.116Z,95183.59
2022-12-25T11:54:10.838Z,95180.66
2022-12-25T11:56:38.151Z,95182.16
2022-12-25T11:59:30.693Z,95185.72
2022-12-25T12:02:33.069Z,95177.53
2022-12-25T12:05:09.354Z,95173.31
2022-12-25T12:07:37.615Z,95166.47
2022-12-25T12:10:21.145Z,95176.84
2022-12-25T12:13:05.806Z,95185.00
2022-12-25T12:15:48.704Z,95172.78
2022-12-25T12:18:27.637Z,95174.47
2022-12-25T12:21:06.068Z,95181.00
2022-12-25T12:23:53.181Z,95168.00
2022-12-25T12:26:30.974Z,95180.63
2022-12-25T12:28:59.666Z,95187.91
2022-12-25T12:31:39.136Z,95184.97
2022-12-25T12:34:05.829Z,95179.66
2022-12-25T12:36:36.921Z,95165.94
2022-12-25T12:39:04.289Z,95160.81
2022-12-25T12:41:46.434Z,95166.72
2022-12-25T12:44:14.619Z,95166.63
2022-12-25T12:46:54.045Z,95161.31
2022-12-25T12:49:20.466Z,95165.31
2022-12-25T12:51:47.135Z,95156.31
2022-12-25T12:54:25.708Z,95172.03
2022-12-25T12:56:59.799Z,95172.59
2022-12-25T12:59:27.904Z,95161.97
2022-12-25T13:02:19.891Z,95160.69
2022-12-25T13:05:05.076Z,95150.53
2022-12-25T13:08:19.544Z,95159.63
2022-12-25T13:10:51.240Z,95164.63
2022-12-25T13:13:21.989Z,95168.81
2022-12-25T13:15:49.908Z,95165.41
2022-12-25T13:18:16.549Z,95174.63
2022-12-25T13:21:04.161Z,95175.34
2022-12-25T13:23:33.363Z,95171.78
2022-12-25T13:26:02.218Z,95166.22
2022-12-25T13:28:38.774Z,95175.09
2022-12-25T13:31:13.770Z,95175.75
2022-12-25T13:33:44.253Z,95180.28
2022-12-25T13:36:12.882Z,95177.00
2022-12-25T13:38:47.473Z,95162.47
2022-12-25T13:41:22.260Z,95172.84
2022-12-25T13:43:48.936Z,95169.22
2022-12-25T13:46:15.922Z,95175.97
2022-12-25T13:48:42.824Z,95179.50
2022-12-25T13:51:14.733Z,95178.44
2022-12-25T13:53:41.254Z,95172.19
2022-12-25T13:56:13.624Z,95161.13
2022-12-25T13:58:43.138Z,95161.56
2022-12-25T14:01:12.405Z,95171.50
2022-12-25T14:03:48.187Z,95157.41
2022-12-25T14:06:24.184Z,95159.16
2022-12-25T14:08:51.293Z,95170.69
2022-12-25T14:11:23.425Z,95151.63
2022-12-25T14:14:02.350Z,95161.97
2022-12-25T14:19:32.630Z,95175.53
2022-12-25T14:22:11.106Z,95171.28
2022-12-25T14:24:57.284Z,95166.78
2022-12-25T14:27:28.688Z,95163.91
2022-12-25T14:30:05.225Z,95174.19
2022-12-25T14:32:48.740Z,95188.97
2022-12-25T14:39:45.400Z,95176.91
2022-12-25T14:42:21.183Z,95158.91
2022-12-25T14:44:56.127Z,95168.19
2022-12-25T14:47:49.302Z,95169.00
2022-12-25T14:50:42.090Z,95157.94
2022-12-25T14:53:22.665Z,95177.00
2022-12-25T14:55:55.595Z,95159.25
2022-12-25T14:58:31.969Z,95166.34
2022-12-25T15:01:05.079Z,95157.06
2022-12-25T15:03:40.810Z,95167.03
2022-12-25T15:06:25.073Z,95160.09
2022-12-25T15:08:58.599Z,95148.53
2022-12-25T15:11:25.234Z,95147.25
2022-12-25T15:14:15.033Z,95164.84
2022-12-25T15:16:44.355Z,95155.03
2022-12-25T15:19:20.579Z,95147.72
2022-12-25T15:21:51.536Z,95155.84
2022-12-25T15:24:18.106Z,95162.03
2022-12-25T15:26:44.757Z,95165.72
2022-12-25T15:29:11.349Z,95154.97
2022-12-25T15:31:41.378Z,95160.94
2022-12-25T15:34:19.440Z,95163.94
2022-12-25T15:36:46.654Z,95139.00
2022-12-25T15:39:31.530Z,95137.63
2022-12-25T15:42:01.201Z,95154.94
2022-12-25T15:44:30.592Z,95155.16
2022-12-25T15:46:57.108Z,95153.34
2022-12-25T15:49:26.697Z,95152.72
2022-12-25T15:51:56.423Z,95151.13
2022-12-25T15:54:35.759Z,95145.78
2022-12-25T15:57:19.780Z,95137.97
2022-12-25T15:59:46.744Z,95151.69
2022-12-25T16:02:16.100Z,95151.13
2022-12-25T16:04:43.027Z,95159.56
2022-12-25T16:10:15.870Z,95165.69
2022-12-25T16:12:42.710Z,95158.22
2022-12-25T16:15:15.728Z,95165.88
2022-12-25T16:17:42.616Z,95162.81
2022-12-25T16:20:18.698Z,95155.25
2022-12-25T16:22:45.207Z,95164.81
2022-12-25T16:25:21.200Z,95165.78
2022-12-25T16:27:47.817Z,95169.72
2022-12-25T16:30:16.163Z,95167.16
2022-12-25T16:32:43.556Z,95183.31
2022-12-25T16:35:10.941Z,95165.69
2022-12-25T16:37:41.786Z,95168.75
2022-12-25T16:40:08.970Z,95180.09
2022-12-25T16:42:38.666Z,95155.47
2022-12-25T16:45:05.818Z,95154.47
2022-12-25T16:47:32.443Z,95175.72
2022-12-25T16:50:00.501Z,95171.03
2022-12-25T16:52:27.208Z,95169.34
2022-12-25T16:54:56.661Z,95177.88
2022-12-25T16:57:23.284Z,95191.47
2022-12-25T16:59:49.930Z,95213.81
2022-12-25T17:02:50.027Z,95206.75
2022-12-25T17:05:16.728Z,95212.66
2022-12-25T17:07:45.691Z,95220.09
2022-12-25T17:10:41.161Z,95221.16
2022-12-25T17:13:17.087Z,95228.28
2022-12-25T17:15:55.963Z,95229.47
2022-12-25T17:18:34.751Z,95226.75
2022-12-25T17:21:01.390Z,95234.25
2022-12-25T17:23:31.047Z,95224.94
2022-12-25T17:26:06.972Z,95222.28
2022-12-25T17:28:35.071Z,95217.16
2022-12-25T17:31:13.068Z,95220.44
2022-12-25T17:33:41.255Z,95205.97
2022-12-25T17:36:10.963Z,95211.69
2022-12-25T17:38:47.155Z,95211.78
2022-12-25T17:56:00.835Z,95207.22
2022-12-25T17:58:34.990Z,95205.50
2022-12-25T18:04:22.216Z,95220.19
2022-12-25T18:06:51.496Z,95225.97
2022-12-25T18:09:21.064Z,95222.53
2022-12-25T18:11:47.590Z,95214.75
2022-12-25T18:14:16.208Z,95206.38
2022-12-25T18:16:53.571Z,95210.38
2022-12-25T18:19:29.083Z,95208.94
2022-12-25T18:21:55.594Z,95199.53
2022-12-25T18:24:29.040Z,95196.31
2022-12-25T18:26:58.135Z,95194.03
2022-12-25T18:29:34.850Z,95198.19
2022-12-25T18:32:02.890Z,95203.50
2022-12-25T18:34:30.446Z,95201.94
2022-12-25T18:36:57.024Z,95193.44
2022-12-25T18:39:24.523Z,95203.41
2022-12-25T18:45:26.214Z,95210.38
2022-12-25T18:47:56.005Z,95221.06
2022-12-25T18:50:25.712Z,95214.53
2022-12-25T18:52:52.257Z,95217.63
2022-12-25T18:55:19.348Z,95217.88
2022-12-25T18:57:46.404Z,95214.06
2022-12-25T19:00:13.611Z,95205.50
2022-12-25T19:02:40.277Z,95195.41
2022-12-25T19:05:07.145Z,95201.25
2022-12-25T19:07:33.752Z,95205.50
2022-12-25T19:10:00.252Z,95218.13
2022-12-25T19:12:26.825Z,95220.03
2022-12-25T19:14:53.534Z,95222.72
2022-12-25T19:17:20.009Z,95217.97
2022-12-25T19:19:46.671Z,95220.16
2022-12-25T19:22:13.466Z,95221.91
2022-12-25T19:24:40.098Z,95234.16
2022-12-25T19:27:06.907Z,95230.72
2022-12-25T19:29:33.602Z,95231.91
2022-12-25T19:32:02.305Z,95240.47
2022-12-25T19:34:29.156Z,95239.63
2022-12-25T19:36:56.796Z,95237.22
2022-12-25T19:39:25.111Z,95235.66
2022-12-25T19:41:54.802Z,95244.47
2022-12-25T19:44:21.345Z,95237.81
2022-12-25T19:46:49.027Z,95241.38
2022-12-25T19:49:15.521Z,95251.94
2022-12-25T19:51:45.122Z,95255.59
2022-12-25T19:54:13.541Z,95252.56
2022-12-25T19:56:42.918Z,95263.56
2022-12-25T19:59:12.081Z,95257.09
2022-12-25T20:01:38.995Z,95259.53
2022-12-25T20:04:07.191Z,95264.19
2022-12-25T20:06:34.495Z,95266.50
2022-12-25T20:09:05.237Z,95278.06
2022-12-25T20:11:33.342Z,95268.72
2022-12-25T20:14:00.759Z,95277.66
2022-12-25T20:16:27.644Z,95266.41
2022-12-25T20:18:55.323Z,95289.88
2022-12-25T20:21:22.886Z,95293.84
2022-12-25T20:23:51.503Z,95297.50
2022-12-25T20:26:20.193Z,95302.78
2022-12-25T20:28:46.770Z,95301.19
2022-12-25T20:31:15.795Z,95311.94
2022-12-25T20:33:42.786Z,95315.69
2022-12-25T20:36:11.928Z,95322.63
2022-12-25T20:38:38.466Z,95322.06
2022-12-25T20:41:30.232Z,95323.44
2022-12-25T20:43:57.332Z,95325.56
2022-12-25T20:46:24.910Z,95332.78
2022-12-25T20:48:51.644Z,95328.84
2022-12-25T20:51:23.358Z,95345.00
2022-12-25T20:53:50.635Z,95337.97
2022-12-25T20:56:20.574Z,95357.59
2022-12-25T20:58:47.298Z,95355.91
2022-12-25T21:01:16.318Z,95359.41
2022-12-25T21:03:46.125Z,95369.50
2022-12-25T21:06:13.150Z,95366.00
2022-12-25T21:08:39.962Z,95365.63
2022-12-25T21:11:07.043Z,95361.34
2022-12-25T21:13:41.001Z,95351.06
2022-12-25T21:16:10.550Z,95360.31
2022-12-25T21:18:37.107Z,95373.59
2022-12-25T21:21:05.288Z,95376.41
2022-12-25T21:23:33.665Z,95376.03
2022-12-25T21:26:00.403Z,95374.59
2022-12-25T21:28:27.235Z,95397.22
2022-12-25T21:30:53.753Z,95378.50
2022-12-25T21:33:20.446Z,95378.50
2022-12-25T21:35:47.010Z,95387.19
2022-12-25T21:38:13.544Z,95381.72
2022-12-25T21:40:40.344Z,95380.97
2022-12-25T21:43:06.891Z,95391.25
2022-12-25T21:45:34.843Z,95395.72
2022-12-25T21:48:03.285Z,95401.38
2022-12-25T21:50:32.493Z,95408.72
2022-12-25T21:53:02.594Z,95401.00
2022-12-25T21:55:29.214Z,95407.75
2022-12-25T21:57:55.717Z,95399.38
2022-12-25T22:00:22.207Z,95409.16
2022-12-25T22:02:49.159Z,95417.22
2022-12-25T22:05:15.844Z,95408.47
2022-12-25T22:07:42.347Z,95411.75
2022-12-25T22:10:08.965Z,95412.41
2022-12-25T22:12:35.553Z,95428.66
2022-12-25T22:15:07.208Z,95429.13
2022-12-25T22:17:36.817Z,95428.06
2022-12-25T22:20:05.141Z,95428.84
2022-12-25T22:22:31.929Z,95425.28
2022-12-25T22:25:00.192Z,95430.47
2022-12-25T22:27:33.684Z,95436.22
2022-12-25T22:30:00.624Z,95446.69
2022-12-25T22:32:32.560Z,95438.84
2022-12-25T22:34:59.047Z,95454.91
2022-12-25T22:37:25.550Z,95458.38
2022-12-25T22:39:52.136Z,95462.81
2022-12-25T22:42:18.933Z,95465.06
2022-12-25T22:44:49.817Z,95468.03
2022-12-25T22:47:16.301Z,95463.81
2022-12-25T22:49:42.845Z,95458.38
2022-12-25T22:52:09.815Z,95457.88
2022-12-25T22:54:37.157Z,95464.72
2022-12-25T22:57:03.883Z,95462.72
2022-12-25T22:59:30.434Z,95475.28
2022-12-25T23:01:57.094Z,95476.88
2022-12-25T23:04:23.701Z,95473.06
2022-12-25T23:06:50.741Z,95469.00
2022-12-25T23:09:24.447Z,95471.66
2022-12-25T23:11:51.508Z,95487.78
2022-12-25T23:14:25.698Z,95489.44
2022-12-25T23:16:52.291Z,95477.66
2022-12-25T23:19:18.837Z,95477.91
2022-12-25T23:21:45.418Z,95485.59
2022-12-25T23:24:12.091Z,95493.53
2022-12-25T23:26:38.569Z,95491.25
2022-12-25T23:29:05.033Z,95490.03
2022-12-25T23:31:37.034Z,95493.28
2022-12-25T23:34:04.521Z,95490.16
2022-12-25T23:36:31.512Z,95483.94
2022-12-25T23:39:03.087Z,95502.63
2022-12-25T23:41:33.592Z,95502.22
2022-12-25T23:44:00.198Z,95505.84
2022-12-25T23:46:26.863Z,95497.38
2022-12-25T23:48:53.355Z,95508.69
2022-12-25T23:51:20.028Z,95499.41
2022-12-25T23:53:46.509Z,95489.03
2022-12-25T23:56:13.114Z,95500.84
2022-12-25T23:58:39.797Z,95493.75
